createdAt,value
2023-04-29T00:03:48.399Z,3.60
2023-04-29T00:08:53.486Z,5.15
2023-04-29T00:13:57.018Z,3.22
2023-04-29T00:19:00.944Z,3.88
2023-04-29T00:24:06.232Z,3.10
2023-04-29T00:29:09.836Z,3.53
2023-04-29T00:34:13.333Z,3.53
2023-04-29T00:39:18.226Z,2.95
2023-04-29T00:49:24.847Z,4.57
2023-04-29T00:54:29.960Z,3.47
2023-04-29T00:59:33.518Z,3.72
2023-04-29T01:04:37.192Z,3.45
2023-04-29T01:09:54.953Z,3.88
2023-04-29T01:15:07.076Z,3.58
2023-04-29T01:20:11.778Z,4.07
2023-04-29T01:25:16.794Z,3.33
2023-04-29T01:30:30.213Z,2.95
2023-04-29T01:35:47.606Z,3.63
2023-04-29T01:41:01.006Z,3.60
2023-04-29T01:46:06.116Z,3.70
2023-04-29T01:51:09.631Z,3.42
2023-04-29T01:56:14.495Z,2.90
2023-04-29T02:06:21.266Z,2.55
2023-04-29T02:11:26.295Z,3.40
2023-04-29T02:16:29.855Z,2.28
2023-04-29T02:21:35.330Z,2.67
2023-04-29T02:26:40.331Z,3.97
2023-04-29T02:31:43.910Z,3.05
2023-04-29T02:36:47.496Z,4.18
2023-04-29T02:41:55.834Z,3.58
2023-04-29T02:46:59.420Z,3.20
2023-04-29T02:52:02.887Z,3.58
2023-04-29T02:57:08.178Z,3.17
2023-04-29T03:02:11.881Z,2.95
2023-04-29T03:07:17.577Z,2.22
2023-04-29T03:12:22.532Z,2.60
2023-04-29T03:22:29.197Z,3.10
2023-04-29T03:27:34.177Z,4.82
2023-04-29T03:32:37.693Z,2.80
2023-04-29T03:37:44.527Z,2.85
2023-04-29T03:42:49.658Z,4.20
2023-04-29T03:52:57.989Z,3.33
2023-04-29T03:58:03.081Z,3.78
2023-04-29T04:03:06.707Z,2.90
2023-04-29T04:08:11.074Z,4.35
2023-04-29T04:13:16.049Z,3.58
2023-04-29T04:18:19.711Z,3.78
2023-04-29T04:23:23.241Z,4.78
2023-04-29T04:28:28.121Z,5.13
2023-04-29T04:38:35.545Z,4.00
2023-04-29T04:43:41.682Z,5.23
2023-04-29T04:48:45.216Z,4.03
2023-04-29T04:53:48.797Z,4.28
2023-04-29T04:58:53.693Z,4.85
2023-04-29T05:09:01.260Z,4.70
2023-04-29T05:14:06.550Z,4.55
2023-04-29T05:19:10.068Z,4.63
2023-04-29T05:24:13.545Z,5.90
2023-04-29T05:29:18.564Z,3.85
2023-04-29T05:34:22.162Z,3.97
2023-04-29T05:39:26.957Z,4.30
2023-04-29T05:44:31.850Z,7.63
2023-04-29T05:54:38.675Z,4.43
2023-04-29T05:59:43.559Z,4.82
2023-04-29T06:09:51.995Z,4.07
2023-04-29T06:14:57.130Z,5.90
2023-04-29T06:25:04.039Z,3.33
2023-04-29T06:30:10.465Z,3.60
2023-04-29T06:35:13.960Z,2.60
2023-04-29T06:40:17.495Z,3.67
2023-04-29T06:45:23.853Z,3.13
2023-04-29T06:50:28.198Z,3.35
2023-04-29T06:55:31.731Z,3.28
2023-04-29T07:00:36.934Z,3.88
2023-04-29T07:05:42.046Z,4.85
2023-04-29T07:10:45.570Z,4.00
2023-04-29T07:15:50.564Z,4.43
2023-04-29T07:20:55.945Z,2.83
2023-04-29T07:25:59.396Z,4.75
2023-04-29T07:31:04.506Z,4.18
2023-04-29T07:36:09.213Z,3.22
2023-04-29T07:41:12.764Z,3.42
2023-04-29T07:46:18.438Z,3.90
2023-04-29T07:51:21.978Z,3.90
2023-04-29T07:56:26.195Z,6.20
2023-04-29T08:01:31.070Z,4.22
2023-04-29T08:06:34.717Z,3.58
2023-04-29T08:11:40.078Z,4.87
2023-04-29T08:16:44.983Z,5.75
2023-04-29T08:21:48.494Z,3.38
2023-04-29T08:26:52.612Z,3.90
2023-04-29T08:31:57.639Z,4.70
2023-04-29T08:37:01.399Z,4.40
2023-04-29T08:42:10.062Z,5.07
2023-04-29T08:47:16.536Z,3.38
2023-04-29T08:52:19.988Z,3.17
2023-04-29T08:57:26.412Z,3.10
2023-04-29T09:02:31.438Z,3.60
2023-04-29T09:07:36.293Z,5.57
2023-04-29T09:12:39.951Z,4.82
2023-04-29T09:17:46.668Z,5.20
2023-04-29T09:22:50.650Z,4.95
2023-04-29T09:27:54.663Z,3.30
2023-04-29T09:33:10.202Z,2.72
2023-04-29T09:38:15.602Z,4.50
2023-04-29T09:43:21.645Z,3.85
2023-04-29T09:48:35.630Z,3.58
2023-04-29T09:53:39.199Z,2.93
2023-04-29T09:58:42.708Z,5.10
2023-04-29T10:03:49.992Z,2.15
2023-04-29T10:08:53.687Z,5.15
2023-04-29T10:13:57.998Z,3.80
2023-04-29T10:19:08.524Z,4.70
2023-04-29T10:24:13.949Z,3.03
2023-04-29T10:29:19.734Z,3.55
2023-04-29T10:34:25.930Z,2.38
2023-04-29T10:39:37.109Z,3.38
2023-04-29T10:45:20.123Z,4.30
2023-04-29T10:50:25.145Z,2.63
2023-04-29T10:55:28.846Z,3.58
2023-04-29T11:00:33.449Z,4.03
2023-04-29T11:10:44.008Z,4.25
2023-04-29T11:15:47.614Z,5.40
2023-04-29T11:21:20.047Z,5.45
2023-04-29T11:26:25.237Z,5.40
2023-04-29T11:31:30.376Z,4.38
2023-04-29T11:36:35.918Z,4.88
2023-04-29T11:41:40.003Z,3.42
2023-04-29T11:46:43.485Z,3.53
2023-04-29T11:51:48.483Z,3.22
2023-04-29T11:56:54.614Z,5.28
2023-04-29T12:01:59.866Z,2.13
2023-04-29T12:07:06.125Z,3.42
2023-04-29T12:12:09.822Z,4.18
2023-04-29T12:17:13.828Z,4.50
2023-04-29T12:22:20.865Z,3.92
2023-04-29T12:27:26.712Z,2.80
2023-04-29T12:32:30.260Z,3.47
2023-04-29T12:37:35.429Z,2.35
2023-04-29T12:42:41.557Z,3.58
2023-04-29T12:47:46.739Z,5.30
2023-04-29T12:52:51.994Z,3.75
2023-04-29T12:57:55.508Z,5.57
2023-04-29T13:02:59.348Z,3.83
2023-04-29T13:08:06.076Z,5.53
2023-04-29T13:13:09.789Z,2.88
2023-04-29T13:18:13.308Z,4.03
2023-04-29T13:23:18.279Z,3.63
2023-04-29T13:28:22.398Z,3.83
2023-04-29T13:33:25.929Z,4.55
2023-04-29T13:38:30.951Z,5.75
2023-04-29T13:43:38.439Z,6.40
2023-04-29T13:49:17.297Z,1.88
2023-04-29T13:59:40.010Z,3.20
2023-04-29T14:04:39.522Z,4.65
2023-04-29T14:09:44.652Z,4.03
2023-04-29T14:14:48.112Z,4.05
2023-04-29T14:19:51.746Z,4.80
2023-04-29T14:24:56.831Z,4.83
2023-04-29T14:30:00.371Z,3.50
2023-04-29T14:35:03.890Z,2.90
2023-04-29T14:40:10.956Z,3.90
2023-04-29T14:45:14.502Z,4.82
2023-04-29T14:50:18.488Z,6.60
2023-04-29T14:55:25.996Z,4.55
2023-04-29T15:00:29.444Z,3.65
2023-04-29T15:05:33.100Z,2.70
2023-04-29T15:10:38.097Z,4.40
2023-04-29T15:15:41.651Z,2.85
2023-04-29T15:20:45.185Z,2.00
2023-04-29T15:25:50.166Z,3.50
2023-04-29T15:30:53.733Z,3.03
2023-04-29T15:35:57.995Z,4.93
2023-04-29T15:41:03.735Z,3.35
2023-04-29T15:46:07.462Z,4.40
2023-04-29T15:51:13.974Z,5.85
2023-04-29T15:56:19.142Z,3.83
2023-04-29T16:01:22.678Z,4.95
2023-04-29T16:06:27.751Z,5.57
2023-04-29T16:11:32.771Z,4.85
2023-04-29T16:16:36.287Z,6.57
2023-04-29T16:21:40.007Z,10.25
2023-04-29T16:26:44.996Z,5.68
2023-04-29T16:31:48.609Z,8.52
2023-04-29T16:36:52.767Z,12.15
2023-04-29T16:41:57.761Z,13.73
2023-04-29T16:47:01.329Z,9.25
2023-04-29T16:52:05.810Z,8.63
2023-04-29T16:57:10.860Z,5.95
2023-04-29T17:02:14.428Z,14.75
2023-04-29T17:07:19.595Z,15.70
2023-04-29T17:12:24.500Z,12.85
2023-04-29T17:17:28.003Z,12.27
2023-04-29T17:22:32.897Z,18.52
2023-04-29T17:32:41.512Z,20.53
2023-04-29T17:37:45.100Z,32.10
2023-04-29T17:42:50.500Z,26.52
2023-04-29T17:47:54.300Z,19.88
2023-04-29T17:52:57.928Z,25.23
2023-04-29T17:58:02.785Z,23.10
2023-04-29T18:08:10.009Z,18.10
2023-04-29T18:13:14.974Z,17.27
2023-04-29T18:23:22.636Z,16.30
2023-04-29T18:28:29.133Z,23.65
2023-04-29T18:33:32.586Z,21.98
2023-04-29T18:38:36.270Z,23.15
2023-04-29T18:43:41.301Z,17.33
2023-04-29T18:48:44.898Z,22.15
2023-04-29T18:53:48.473Z,21.20
2023-04-29T18:58:53.531Z,21.38
2023-04-29T19:09:01.448Z,21.77
2023-04-29T19:14:06.663Z,25.58
2023-04-29T19:19:10.487Z,21.80
2023-04-29T19:24:14.011Z,24.08
2023-04-29T19:29:19.073Z,21.17
2023-04-29T19:34:22.547Z,16.35
2023-04-29T19:39:26.969Z,23.52
2023-04-29T19:44:32.117Z,24.48
2023-04-29T19:49:35.702Z,14.40
2023-04-29T19:54:41.003Z,17.98
2023-04-29T19:59:46.132Z,22.88
2023-04-29T20:04:49.674Z,14.88
2023-04-29T20:09:53.552Z,13.45
2023-04-29T20:14:59.003Z,13.87
2023-04-29T20:20:02.628Z,12.38
2023-04-29T20:25:08.069Z,13.73
2023-04-29T20:30:13.372Z,19.60
2023-04-29T20:35:17.028Z,14.13
2023-04-29T20:40:20.918Z,14.77
2023-04-29T20:45:26.130Z,13.60
2023-04-29T20:50:29.674Z,18.05
2023-04-29T20:55:33.275Z,19.52
2023-04-29T21:00:38.341Z,14.85
2023-04-29T21:05:41.993Z,13.23
2023-04-29T21:10:45.696Z,15.10
2023-04-29T21:15:51.065Z,12.00
2023-04-29T21:20:54.705Z,18.15
2023-04-29T21:25:58.148Z,16.88
2023-04-29T21:31:03.117Z,19.38
2023-04-29T21:36:06.814Z,19.50
2023-04-29T21:41:19.441Z,18.10
2023-04-29T21:46:25.017Z,20.30
2023-04-29T21:51:29.686Z,19.90
2023-04-29T21:56:33.286Z,19.23
2023-04-29T22:01:48.600Z,16.73
2023-04-29T22:06:52.387Z,16.13
2023-04-29T22:11:55.876Z,15.60
2023-04-29T22:17:00.765Z,16.33
2023-04-29T22:27:07.502Z,15.32
2023-04-29T22:32:12.498Z,12.32
2023-04-29T22:37:16.256Z,18.58
2023-04-29T22:42:19.758Z,13.55
2023-04-29T22:47:24.785Z,11.55
2023-04-29T22:52:28.324Z,14.80
2023-04-29T22:57:31.898Z,13.10
2023-04-29T23:02:36.778Z,22.73
2023-04-29T23:12:43.392Z,19.58
2023-04-29T23:17:48.312Z,13.50
2023-04-29T23:27:55.802Z,16.58
2023-04-29T23:33:00.894Z,22.95
2023-04-29T23:38:04.650Z,13.63
2023-04-29T23:43:08.145Z,14.93
2023-04-29T23:48:13.491Z,13.52
2023-04-29T23:53:17.153Z,15.48
2023-04-29T23:58:20.639Z,15.15
